Time;durP1;ratioP1;P1;durP2;ratioP2;P2;SDS_P1;SDS_P2;PMS_P1;PMS_P2;Temp;Humidity;BMP_temperature;BMP_pressure;BME280_temperature;BME280_humidity;BME280_pressure;Samples;Min_cycle;Max_cycle;Signal;HPM_P1;HPM_P2
2022/04/24 00:01:27;;;;;;;6.70;4.90;;;10.00;99.90;;;;;;5116439;28;20457;-72
2022/04/24 00:03:54;;;;;;;6.20;5.30;;;9.90;99.90;;;;;;5116073;28;20555;-72
2022/04/24 00:06:21;;;;;;;7.67;5.27;;;9.90;99.90;;;;;;5115754;28;20982;-72
2022/04/24 00:08:49;;;;;;;8.00;5.40;;;9.90;99.90;;;;;;5116026;28;20467;-73
2022/04/24 00:11:16;;;;;;;6.60;5.93;;;9.80;99.90;;;;;;5116013;28;20459;-72
2022/04/24 00:13:43;;;;;;;8.17;5.00;;;9.80;99.90;;;;;;5115806;28;20463;-72
2022/04/24 00:16:10;;;;;;;6.40;5.30;;;9.80;99.90;;;;;;5116238;28;20456;-72
2022/04/24 00:18:38;;;;;;;7.40;6.10;;;9.80;99.90;;;;;;5115758;28;20468;-72
2022/04/24 00:21:05;;;;;;;5.80;5.10;;;9.70;99.90;;;;;;5115311;28;20460;-72
2022/04/24 00:23:32;;;;;;;8.00;5.67;;;9.70;99.90;;;;;;5115728;28;20484;-71
2022/04/24 00:26:01;;;;;;;6.57;5.50;;;9.70;99.90;;;;;;5115921;28;20808;-71
2022/04/24 00:28:28;;;;;;;10.03;5.47;;;9.70;99.90;;;;;;5115216;28;20481;-71
2022/04/24 00:30:55;;;;;;;6.87;5.20;;;9.60;99.90;;;;;;5115334;28;20467;-72
2022/04/24 00:33:22;;;;;;;6.00;5.40;;;9.60;99.90;;;;;;5115423;28;20506;-72
2022/04/24 00:35:49;;;;;;;6.40;5.10;;;9.60;99.90;;;;;;5115040;28;20452;-72
2022/04/24 00:38:15;;;;;;;9.90;5.43;;;9.60;99.90;;;;;;5115812;28;20490;-72
2022/04/24 00:40:46;;;;;;;7.30;5.33;;;9.50;99.90;;;;;;5115724;28;20452;-72
2022/04/24 00:43:14;;;;;;;9.20;5.67;;;9.50;99.90;;;;;;5116006;28;20436;-72
2022/04/24 00:45:41;;;;;;;6.10;5.50;;;9.40;99.90;;;;;;5115757;28;20467;-72
2022/04/24 00:48:08;;;;;;;6.53;5.33;;;9.40;99.90;;;;;;5115217;28;20487;-72
2022/04/24 00:50:35;;;;;;;6.30;5.20;;;9.40;99.90;;;;;;5115321;28;20456;-72
2022/04/24 00:53:01;;;;;;;7.33;5.80;;;9.40;99.90;;;;;;5115352;28;20483;-72
2022/04/24 00:55:30;;;;;;;5.77;5.00;;;9.40;99.90;;;;;;5114895;28;20488;-72
2022/04/24 00:57:56;;;;;;;9.97;5.60;;;9.30;99.90;;;;;;5115272;28;20453;-73
2022/04/24 01:00:25;;;;;;;5.67;5.10;;;9.30;99.90;;;;;;5115202;28;20787;-72
2022/04/24 01:02:52;;;;;;;6.40;5.57;;;9.20;99.90;;;;;;5115071;28;20475;-73
2022/04/24 01:05:19;;;;;;;6.80;5.70;;;9.20;99.90;;;;;;5115587;28;20480;-72
2022/04/24 01:07:45;;;;;;;8.27;5.60;;;9.20;99.90;;;;;;5115314;28;20824;-71
2022/04/24 01:10:12;;;;;;;6.50;5.80;;;9.20;99.90;;;;;;5114757;28;20457;-72
2022/04/24 01:12:39;;;;;;;7.17;5.13;;;9.10;99.90;;;;;;5115129;28;20457;-72
2022/04/24 01:15:07;;;;;;;6.90;6.17;;;9.10;99.90;;;;;;5114879;28;20534;-72
2022/04/24 01:17:35;;;;;;;10.93;6.00;;;9.10;99.90;;;;;;5115419;28;20476;-72
2022/04/24 01:20:02;;;;;;;7.03;5.97;;;9.00;99.90;;;;;;5114825;28;20452;-72
2022/04/24 01:22:30;;;;;;;6.40;5.70;;;9.00;99.90;;;;;;5114753;28;20461;-73
2022/04/24 01:24:57;;;;;;;8.33;5.70;;;8.90;99.90;;;;;;5114630;28;20452;-72
2022/04/24 01:27:23;;;;;;;7.73;6.03;;;8.90;99.90;;;;;;5114802;28;20960;-73
2022/04/24 01:29:51;;;;;;;8.20;5.20;;;8.90;99.90;;;;;;5114862;28;20562;-72
2022/04/24 01:32:18;;;;;;;7.40;5.83;;;8.90;99.90;;;;;;5114946;28;20463;-72
2022/04/24 01:34:44;;;;;;;6.23;4.90;;;8.80;99.90;;;;;;5115038;28;20456;-72
2022/04/24 01:37:11;;;;;;;6.20;5.30;;;8.80;99.90;;;;;;5114945;28;20457;-71
2022/04/24 01:39:39;;;;;;;5.60;4.90;;;8.80;99.90;;;;;;5114931;28;20462;-72
2022/04/24 01:42:06;;;;;;;6.50;5.30;;;8.70;99.90;;;;;;5115295;28;20452;-71
2022/04/24 01:44:33;;;;;;;7.90;5.40;;;8.70;99.90;;;;;;5114856;28;20787;-72
2022/04/24 01:47:00;;;;;;;7.30;5.47;;;8.70;99.90;;;;;;5118191;28;20505;-72
2022/04/24 01:49:27;;;;;;;12.40;6.73;;;8.60;99.90;;;;;;5118257;28;20464;-72
2022/04/24 01:51:53;;;;;;;8.00;5.80;;;8.60;99.90;;;;;;5118888;28;20456;-72
2022/04/24 01:54:20;;;;;;;10.43;5.63;;;8.60;99.90;;;;;;5118616;28;20794;-72
2022/04/24 01:56:48;;;;;;;12.10;5.33;;;8.60;99.90;;;;;;5118425;28;20472;-72
2022/04/24 01:59:15;;;;;;;6.07;5.23;;;8.60;99.90;;;;;;5118356;28;20479;-72
2022/04/24 02:01:41;;;;;;;7.03;5.63;;;8.50;99.90;;;;;;5118445;28;20464;-73
2022/04/24 02:04:08;;;;;;;8.20;6.00;;;8.50;99.90;;;;;;5118383;28;20452;-72
2022/04/24 02:06:35;;;;;;;7.33;5.87;;;8.50;99.90;;;;;;5118475;28;20456;-72
2022/04/24 02:09:01;;;;;;;7.93;6.57;;;8.50;99.90;;;;;;5118405;28;20499;-73
2022/04/24 02:11:29;;;;;;;7.10;6.27;;;8.40;99.90;;;;;;5118783;28;20765;-72
2022/04/24 02:13:57;;;;;;;11.13;6.00;;;8.40;99.90;;;;;;5117858;28;20499;-73
2022/04/24 02:16:24;;;;;;;7.20;6.40;;;8.40;99.90;;;;;;5118639;28;20448;-71
2022/04/24 02:18:50;;;;;;;8.27;5.97;;;8.30;99.90;;;;;;5117755;28;20939;-71
2022/04/24 02:21:17;;;;;;;9.17;5.60;;;8.30;99.90;;;;;;5118234;28;20463;-71
2022/04/24 02:23:44;;;;;;;8.53;5.70;;;8.30;99.90;;;;;;5117989;28;20467;-71
2022/04/24 02:26:10;;;;;;;10.00;5.67;;;8.30;99.90;;;;;;5119034;28;20464;-72
2022/04/24 02:28:37;;;;;;;7.80;5.73;;;8.30;99.90;;;;;;5117998;28;20480;-71
2022/04/24 02:31:05;;;;;;;9.27;6.40;;;8.30;99.90;;;;;;5118427;28;20788;-73
2022/04/24 02:33:32;;;;;;;6.43;5.80;;;8.30;99.90;;;;;;5118044;28;20456;-71
2022/04/24 02:35:59;;;;;;;9.57;5.97;;;8.30;99.90;;;;;;5117864;28;20453;-71
2022/04/24 02:38:25;;;;;;;8.00;5.97;;;8.30;99.90;;;;;;5118640;28;20758;-71
2022/04/24 02:40:52;;;;;;;8.73;6.00;;;8.20;99.90;;;;;;5117831;28;20784;-71
2022/04/24 02:43:19;;;;;;;10.13;6.80;;;8.20;99.90;;;;;;5117730;28;20461;-71
2022/04/24 02:45:46;;;;;;;7.37;5.97;;;8.20;99.90;;;;;;5117989;28;20788;-72
2022/04/24 02:48:14;;;;;;;8.83;6.50;;;8.20;99.90;;;;;;5118162;28;21005;-73
2022/04/24 02:50:41;;;;;;;9.67;6.17;;;8.20;99.90;;;;;;5122821;28;20513;-73
2022/04/24 02:53:08;;;;;;;10.80;6.80;;;8.20;99.90;;;;;;5119065;28;20941;-72
2022/04/24 02:55:35;;;;;;;8.10;5.77;;;8.20;99.90;;;;;;5118089;28;20480;-73
2022/04/24 02:58:01;;;;;;;7.67;6.40;;;8.10;99.90;;;;;;5116526;28;20935;-72
2022/04/24 03:00:39;;;;;;;6.90;6.00;;;8.10;99.90;;;;;;5117897;28;20460;-72
2022/04/24 03:03:06;;;;;;;13.60;6.53;;;8.10;99.90;;;;;;5117194;28;20490;-72
2022/04/24 03:05:35;;;;;;;7.93;7.13;;;8.10;99.90;;;;;;5117343;28;20456;-72
2022/04/24 03:08:01;;;;;;;9.97;6.90;;;8.10;99.90;;;;;;5116994;28;20480;-72
2022/04/24 03:10:29;;;;;;;14.50;6.97;;;8.00;99.90;;;;;;5117402;28;20456;-71
2022/04/24 03:12:56;;;;;;;7.50;5.87;;;8.00;99.90;;;;;;5117228;28;20912;-71
2022/04/24 03:15:23;;;;;;;6.70;6.00;;;8.00;99.90;;;;;;5117195;28;20521;-71
2022/04/24 03:17:51;;;;;;;7.53;5.97;;;7.90;99.90;;;;;;5116765;28;20961;-71
2022/04/24 03:20:18;;;;;;;13.03;6.60;;;7.90;99.90;;;;;;5117254;28;20505;-71
2022/04/24 03:22:46;;;;;;;8.77;5.87;;;7.90;99.90;;;;;;5117078;28;20477;-71
2022/04/24 03:25:12;;;;;;;11.70;6.10;;;7.90;99.90;;;;;;5117135;28;20522;-70
2022/04/24 03:27:39;;;;;;;7.40;5.90;;;7.90;99.90;;;;;;5116761;28;20482;-72
2022/04/24 03:30:08;;;;;;;10.63;6.00;;;7.80;99.90;;;;;;5116567;28;20777;-71
2022/04/24 03:32:36;;;;;;;6.87;5.83;;;7.80;99.90;;;;;;5116374;28;20893;-72
2022/04/24 03:35:04;;;;;;;6.67;5.97;;;7.70;99.90;;;;;;5116642;28;20525;-72
2022/04/24 03:37:31;;;;;;;7.73;6.20;;;7.70;99.90;;;;;;5116195;28;20449;-72
2022/04/24 03:39:59;;;;;;;11.50;6.63;;;7.70;99.90;;;;;;5116754;28;20452;-72
2022/04/24 03:42:26;;;;;;;6.93;6.10;;;7.70;99.90;;;;;;5116351;28;20925;-72
2022/04/24 03:44:54;;;;;;;7.40;6.03;;;7.60;99.90;;;;;;5117126;28;20460;-72
2022/04/24 03:47:21;;;;;;;7.53;5.93;;;7.60;99.90;;;;;;5117000;28;20782;-72
2022/04/24 03:49:47;;;;;;;7.03;6.20;;;7.50;99.90;;;;;;5116995;28;20453;-72
2022/04/24 03:52:14;;;;;;;8.70;6.20;;;7.50;99.90;;;;;;5116453;28;20452;-72
2022/04/24 03:54:41;;;;;;;7.37;6.50;;;7.60;99.90;;;;;;5116381;28;20456;-72
2022/04/24 03:57:09;;;;;;;7.07;6.13;;;7.50;99.90;;;;;;5116432;28;20445;-71
2022/04/24 03:59:36;;;;;;;13.33;6.53;;;7.50;99.90;;;;;;5116667;28;20453;-72
2022/04/24 04:02:03;;;;;;;9.43;6.87;;;7.50;99.90;;;;;;5116480;28;20468;-73
2022/04/24 04:04:30;;;;;;;12.23;5.87;;;7.50;99.90;;;;;;5117116;28;20463;-72
2022/04/24 04:06:57;;;;;;;9.83;6.77;;;7.50;99.90;;;;;;5116305;28;20486;-72
2022/04/24 04:09:24;;;;;;;7.53;6.20;;;7.50;99.90;;;;;;5115451;28;20816;-72
2022/04/24 04:11:50;;;;;;;8.93;6.30;;;7.60;99.90;;;;;;5116790;28;20488;-72
2022/04/24 04:14:18;;;;;;;9.10;6.83;;;7.50;99.90;;;;;;5116295;28;20517;-72
2022/04/24 04:16:45;;;;;;;10.73;6.30;;;7.50;99.90;;;;;;5115763;28;20449;-72
2022/04/24 04:19:12;;;;;;;9.37;6.57;;;7.50;99.90;;;;;;5115815;28;20452;-72
2022/04/24 04:21:38;;;;;;;9.93;7.13;;;7.50;99.90;;;;;;5115951;28;20456;-72
2022/04/24 04:24:08;;;;;;;10.33;6.97;;;7.50;99.90;;;;;;5115663;28;20465;-72
2022/04/24 04:26:34;;;;;;;14.03;6.70;;;7.50;99.90;;;;;;5115905;28;20452;-71
2022/04/24 04:29:01;;;;;;;7.90;5.97;;;7.50;99.90;;;;;;5115794;28;20483;-71
2022/04/24 04:31:29;;;;;;;9.60;6.30;;;7.50;99.90;;;;;;5115256;28;20939;-71
2022/04/24 04:33:56;;;;;;;8.37;6.70;;;7.50;99.90;;;;;;5115950;28;20452;-72
2022/04/24 04:36:22;;;;;;;9.80;6.70;;;7.60;99.90;;;;;;5115585;28;20816;-72
2022/04/24 04:38:49;;;;;;;9.80;6.83;;;7.60;99.90;;;;;;5115383;28;20452;-72
2022/04/24 04:41:16;;;;;;;12.50;8.17;;;7.60;99.90;;;;;;5115751;28;20483;-72
2022/04/24 04:43:42;;;;;;;10.37;6.73;;;7.70;99.90;;;;;;5115425;28;20464;-72
2022/04/24 04:46:09;;;;;;;7.20;6.50;;;7.70;99.90;;;;;;5115251;28;20461;-72
2022/04/24 04:48:37;;;;;;;10.73;7.40;;;7.70;99.90;;;;;;5115198;28;20483;-72
2022/04/24 04:51:04;;;;;;;7.60;6.77;;;7.70;99.90;;;;;;5115546;28;20483;-72
2022/04/24 04:53:32;;;;;;;7.57;6.73;;;7.70;99.90;;;;;;5115566;28;20456;-73
2022/04/24 04:55:59;;;;;;;9.60;6.57;;;7.80;99.90;;;;;;5115423;28;20476;-72
2022/04/24 04:58:25;;;;;;;13.43;7.30;;;7.80;99.90;;;;;;5116077;28;20526;-72
2022/04/24 05:00:52;;;;;;;7.90;6.83;;;7.80;99.90;;;;;;5116348;28;20459;-72
2022/04/24 05:03:18;;;;;;;12.37;7.30;;;7.80;99.90;;;;;;5117794;28;20449;-72
2022/04/24 05:05:46;;;;;;;10.00;6.70;;;7.80;99.90;;;;;;5115766;28;20452;-71
2022/04/24 05:08:13;;;;;;;12.80;7.30;;;7.90;99.90;;;;;;5115254;28;20476;-72
2022/04/24 05:10:40;;;;;;;9.60;6.67;;;7.90;99.90;;;;;;5115164;28;20509;-73
2022/04/24 05:13:06;;;;;;;9.87;6.67;;;7.90;99.90;;;;;;5114947;28;20908;-72
2022/04/24 05:15:33;;;;;;;8.40;6.37;;;8.00;99.90;;;;;;5115162;28;20453;-72
2022/04/24 05:18:00;;;;;;;11.10;6.80;;;8.00;99.90;;;;;;5116264;28;20452;-72
2022/04/24 05:20:27;;;;;;;10.07;7.60;;;8.10;99.90;;;;;;5116236;28;20456;-71
2022/04/24 05:23:03;;;;;;;12.43;7.17;;;8.10;99.90;;;;;;5119882;28;20793;-72
2022/04/24 05:25:30;;;;;;;9.67;6.70;;;8.20;99.90;;;;;;5119832;28;20754;-72
2022/04/24 05:27:57;;;;;;;9.10;6.83;;;8.20;99.90;;;;;;5119385;28;20912;-72
2022/04/24 05:30:24;;;;;;;9.07;7.20;;;8.20;99.90;;;;;;5119773;28;20471;-71
2022/04/24 05:32:51;;;;;;;12.50;7.40;;;8.30;99.90;;;;;;5119559;28;20463;-73
2022/04/24 05:35:18;;;;;;;7.73;6.13;;;8.40;99.90;;;;;;5119317;28;20467;-72
2022/04/24 05:37:46;;;;;;;9.53;7.10;;;8.40;99.90;;;;;;5119410;28;20467;-72
2022/04/24 05:40:15;;;;;;;9.10;7.30;;;8.50;99.90;;;;;;5118685;28;20452;-72
2022/04/24 05:42:46;;;;;;;9.80;7.00;;;8.60;99.90;;;;;;5118793;28;20918;-72
2022/04/24 05:45:14;;;;;;;9.90;6.87;;;8.70;99.90;;;;;;5118711;28;20491;-72
2022/04/24 05:47:41;;;;;;;11.87;8.00;;;8.80;99.90;;;;;;5119171;28;20792;-72
2022/04/24 05:50:08;;;;;;;9.13;7.40;;;8.90;99.90;;;;;;5118785;28;20600;-72
2022/04/24 05:52:35;;;;;;;11.03;7.70;;;9.10;99.90;;;;;;5119138;28;20452;-72
2022/04/24 05:55:02;;;;;;;15.10;10.10;;;9.20;99.90;;;;;;5118571;28;20480;-72
2022/04/24 05:57:30;;;;;;;15.00;11.53;;;9.20;99.90;;;;;;5119397;28;20448;-72
2022/04/24 05:59:57;;;;;;;14.20;7.83;;;9.30;99.90;;;;;;5118722;28;20486;-71
2022/04/24 06:02:24;;;;;;;10.23;6.67;;;9.40;99.90;;;;;;5118750;28;20491;-72
2022/04/24 06:04:51;;;;;;;9.60;7.33;;;9.50;99.90;;;;;;5118541;28;20945;-72
2022/04/24 06:07:18;;;;;;;11.90;7.33;;;9.50;99.90;;;;;;5118885;28;20456;-72
2022/04/24 06:09:44;;;;;;;8.00;6.50;;;9.50;99.90;;;;;;5118058;28;20490;-72
2022/04/24 06:12:11;;;;;;;12.70;7.40;;;9.60;99.90;;;;;;5118569;28;20493;-72
2022/04/24 06:14:40;;;;;;;11.30;7.30;;;9.60;99.90;;;;;;5118463;28;20456;-73
2022/04/24 06:17:07;;;;;;;11.40;6.43;;;9.60;99.90;;;;;;5118477;28;20457;-72
2022/04/24 06:19:33;;;;;;;10.60;6.90;;;9.60;99.90;;;;;;5118744;28;20737;-73
2022/04/24 06:22:00;;;;;;;9.90;7.70;;;9.70;99.90;;;;;;5119572;28;20522;-73
2022/04/24 06:24:27;;;;;;;13.50;6.80;;;9.80;99.90;;;;;;5120217;28;20460;-72
2022/04/24 06:26:54;;;;;;;8.60;6.80;;;9.80;99.90;;;;;;5120398;28;20463;-72
2022/04/24 06:29:21;;;;;;;9.03;7.20;;;10.00;99.90;;;;;;5121218;28;20852;-71
2022/04/24 06:31:49;;;;;;;10.87;7.60;;;10.10;99.90;;;;;;5117547;28;20826;-71
2022/04/24 06:34:15;;;;;;;9.77;7.70;;;10.20;99.90;;;;;;5117623;28;20889;-71
2022/04/24 06:36:42;;;;;;;11.00;8.43;;;10.40;99.90;;;;;;5117806;28;20460;-71
2022/04/24 06:39:09;;;;;;;8.50;6.90;;;10.50;99.90;;;;;;5117833;28;20462;-72
2022/04/24 06:41:35;;;;;;;10.03;6.70;;;10.60;99.90;;;;;;5117622;28;20460;-71
2022/04/24 06:44:02;;;;;;;9.40;7.77;;;10.70;99.90;;;;;;5117799;28;20463;-72
2022/04/24 06:46:29;;;;;;;11.93;6.90;;;10.80;99.90;;;;;;5117619;28;20459;-73
2022/04/24 06:48:57;;;;;;;10.37;6.90;;;10.90;99.90;;;;;;5117922;28;20483;-73
2022/04/24 06:51:23;;;;;;;8.63;6.60;;;11.00;99.90;;;;;;5118382;28;20763;-72
2022/04/24 06:53:50;;;;;;;9.90;7.43;;;11.10;99.90;;;;;;5117562;28;20444;-71
2022/04/24 06:56:17;;;;;;;9.40;7.00;;;11.10;99.90;;;;;;5117365;28;20495;-71
2022/04/24 06:58:43;;;;;;;8.73;6.73;;;11.20;99.90;;;;;;5117621;28;20452;-71
2022/04/24 07:01:10;;;;;;;14.57;11.60;;;11.20;99.90;;;;;;5117060;28;20517;-71
2022/04/24 07:03:37;;;;;;;11.23;8.00;;;11.20;99.90;;;;;;5117413;28;20467;-72
2022/04/24 07:06:07;;;;;;;10.93;7.30;;;11.30;99.90;;;;;;5117176;28;20503;-71
2022/04/24 07:08:34;;;;;;;10.70;7.03;;;11.40;99.90;;;;;;5117315;28;20480;-72
2022/04/24 07:11:00;;;;;;;9.73;6.53;;;11.40;99.90;;;;;;5116867;28;20456;-72
2022/04/24 07:13:27;;;;;;;8.87;7.07;;;11.50;99.90;;;;;;5116898;28;20467;-72
2022/04/24 07:15:54;;;;;;;9.63;7.80;;;11.50;99.90;;;;;;5117020;28;20475;-72
2022/04/24 07:18:20;;;;;;;10.70;8.80;;;11.60;99.90;;;;;;5117139;28;20463;-72
2022/04/24 07:20:47;;;;;;;25.90;18.03;;;11.70;99.90;;;;;;5116947;28;20827;-72
2022/04/24 07:23:15;;;;;;;11.30;7.90;;;11.70;99.90;;;;;;5116930;28;20456;-72
2022/04/24 07:25:44;;;;;;;9.77;7.20;;;11.80;99.90;;;;;;5116882;28;20913;-71
2022/04/24 07:28:11;;;;;;;10.63;6.90;;;11.90;99.90;;;;;;5117062;28;20535;-73
2022/04/24 07:30:38;;;;;;;8.97;7.10;;;11.90;99.90;;;;;;5116767;28;20537;-72
2022/04/24 07:33:05;;;;;;;9.57;7.50;;;12.00;99.90;;;;;;5116791;28;20511;-72
2022/04/24 07:35:34;;;;;;;9.67;6.13;;;12.10;99.90;;;;;;5116285;28;20460;-72
2022/04/24 07:38:01;;;;;;;7.40;6.60;;;12.20;99.90;;;;;;5116635;28;20789;-72
2022/04/24 07:40:31;;;;;;;9.60;7.80;;;12.30;99.90;;;;;;5116356;28;20449;-72
2022/04/24 07:42:59;;;;;;;7.63;6.40;;;12.30;99.90;;;;;;5116952;28;20756;-71
2022/04/24 07:45:27;;;;;;;7.00;5.80;;;12.30;99.90;;;;;;5116321;28;20453;-71
2022/04/24 07:47:55;;;;;;;7.47;6.00;;;12.40;99.90;;;;;;5116233;28;20741;-72
2022/04/24 07:50:24;;;;;;;8.73;6.47;;;12.50;99.90;;;;;;5116070;28;20480;-72
2022/04/24 07:52:51;;;;;;;6.93;5.90;;;12.60;99.90;;;;;;5116080;28;20456;-72
2022/04/24 07:55:22;;;;;;;8.20;6.40;;;12.70;99.90;;;;;;5115631;28;20973;-72
2022/04/24 07:57:51;;;;;;;8.93;6.83;;;12.90;99.90;;;;;;5115885;28;20889;-72
2022/04/24 08:00:20;;;;;;;6.37;5.73;;;13.00;99.90;;;;;;5116142;28;20841;-72
2022/04/24 08:02:48;;;;;;;8.23;6.40;;;13.20;99.90;;;;;;5115767;28;20493;-72
2022/04/24 08:05:20;;;;;;;16.80;13.43;;;13.40;99.90;;;;;;5115673;28;20463;-72
2022/04/24 08:07:47;;;;;;;6.90;6.20;;;13.60;99.90;;;;;;5116016;28;20441;-72
2022/04/24 08:10:14;;;;;;;6.50;5.90;;;13.80;99.90;;;;;;5116548;28;20788;-73
2022/04/24 08:12:41;;;;;;;6.37;5.70;;;13.80;99.90;;;;;;5116043;28;20457;-72
2022/04/24 08:15:11;;;;;;;7.80;4.80;;;13.90;99.90;;;;;;5115568;28;20592;-73
2022/04/24 08:17:38;;;;;;;6.37;5.63;;;14.00;99.90;;;;;;5115467;28;20909;-72
2022/04/24 08:20:05;;;;;;;29.37;19.83;;;14.10;99.90;;;;;;5115658;28;20464;-71
2022/04/24 08:22:38;;;;;;;6.23;5.43;;;14.10;99.90;;;;;;5115594;28;20456;-73
2022/04/24 08:25:05;;;;;;;6.77;6.07;;;14.20;99.90;;;;;;5115516;28;20835;-72
2022/04/24 08:27:32;;;;;;;5.17;4.67;;;14.30;99.90;;;;;;5115521;28;20559;-72
2022/04/24 08:29:58;;;;;;;5.50;4.90;;;14.40;99.90;;;;;;5115328;28;20472;-72
2022/04/24 08:32:27;;;;;;;5.97;4.83;;;14.50;99.90;;;;;;5115706;28;20453;-72
2022/04/24 08:34:56;;;;;;;5.80;4.73;;;14.60;99.90;;;;;;5115399;28;20460;-73
2022/04/24 08:37:23;;;;;;;5.20;4.70;;;14.80;99.90;;;;;;5114942;28;20964;-72
2022/04/24 08:39:50;;;;;;;5.20;4.40;;;15.00;99.90;;;;;;5115252;28;20853;-72
2022/04/24 08:42:18;;;;;;;5.90;4.60;;;15.10;99.90;;;;;;5115933;28;20457;-72
2022/04/24 08:44:45;;;;;;;5.67;5.17;;;15.20;99.90;;;;;;5115279;28;20456;-71
2022/04/24 08:47:14;;;;;;;5.87;5.27;;;15.20;99.90;;;;;;5114756;28;20509;-72
2022/04/24 08:49:43;;;;;;;5.00;4.47;;;15.20;99.90;;;;;;5114678;28;20495;-72
2022/04/24 08:52:10;;;;;;;7.00;6.30;;;15.20;99.90;;;;;;5114897;28;20452;-72
2022/04/24 08:54:39;;;;;;;6.57;4.60;;;15.20;99.90;;;;;;5114708;28;20453;-73
2022/04/24 08:57:05;;;;;;;7.70;4.23;;;15.20;99.90;;;;;;5114683;28;20456;-72
2022/04/24 08:59:32;;;;;;;7.87;4.43;;;15.30;99.90;;;;;;5115157;28;20895;-73
2022/04/24 09:02:00;;;;;;;5.03;4.60;;;15.30;99.90;;;;;;5115026;28;20857;-73
2022/04/24 09:04:27;;;;;;;4.80;4.40;;;15.40;99.90;;;;;;5115206;28;20524;-72
2022/04/24 09:06:59;;;;;;;6.53;4.97;;;15.40;99.90;;;;;;5114822;28;20486;-73
2022/04/24 09:09:26;;;;;;;6.27;5.17;;;15.40;99.90;;;;;;5114958;28;20491;-73
2022/04/24 09:11:53;;;;;;;8.83;4.87;;;15.40;99.90;;;;;;5115013;28;20461;-73
2022/04/24 09:14:20;;;;;;;11.73;9.43;;;15.40;99.90;;;;;;5114653;28;20460;-72
2022/04/24 09:16:49;;;;;;;6.03;5.40;;;15.40;99.90;;;;;;5114917;28;20453;-73
2022/04/24 09:19:17;;;;;;;5.63;5.13;;;15.50;99.90;;;;;;5114866;28;20456;-74
2022/04/24 09:21:44;;;;;;;5.40;4.90;;;15.50;99.90;;;;;;5114637;28;20558;-73
2022/04/24 09:24:12;;;;;;;6.03;5.43;;;15.60;99.90;;;;;;5115535;28;20517;-72
2022/04/24 09:26:50;;;;;;;6.87;4.60;;;15.70;99.90;;;;;;5115665;28;20452;-72
2022/04/24 09:29:17;;;;;;;6.67;5.40;;;15.70;99.90;;;;;;5115373;28;20447;-71
2022/04/24 09:31:47;;;;;;;7.47;5.50;;;15.80;99.90;;;;;;5115164;28;20547;-72
2022/04/24 09:34:14;;;;;;;6.00;5.40;;;15.90;99.90;;;;;;5115103;28;20456;-71
2022/04/24 09:36:41;;;;;;;5.10;4.40;;;15.90;99.90;;;;;;5115222;28;20467;-71
2022/04/24 09:39:08;;;;;;;6.00;5.30;;;15.90;99.90;;;;;;5116118;28;20460;-71
2022/04/24 09:41:37;;;;;;;7.10;5.10;;;16.00;99.90;;;;;;5116893;28;20461;-71
2022/04/24 09:44:13;;;;;;;8.13;5.00;;;16.10;99.90;;;;;;5115082;28;20567;-71
2022/04/24 09:46:40;;;;;;;5.40;4.90;;;16.10;99.90;;;;;;5115430;28;20440;-71
2022/04/24 09:49:09;;;;;;;7.20;4.83;;;16.20;99.90;;;;;;5115215;28;20563;-71
2022/04/24 09:51:40;;;;;;;6.03;5.43;;;16.30;99.90;;;;;;5114940;28;20456;-71
2022/04/24 09:54:07;;;;;;;5.23;4.80;;;16.40;99.90;;;;;;5114900;28;20846;-71
2022/04/24 09:56:36;;;;;;;7.03;5.33;;;16.40;99.90;;;;;;5114771;28;20952;-71
2022/04/24 09:59:04;;;;;;;6.90;5.70;;;16.50;99.90;;;;;;5115173;28;20784;-73
2022/04/24 10:01:32;;;;;;;6.93;5.40;;;16.60;99.90;;;;;;5115870;28;20448;-71
2022/04/24 10:04:00;;;;;;;5.47;4.97;;;16.60;99.90;;;;;;5115579;28;20463;-71
2022/04/24 10:06:27;;;;;;;5.73;5.23;;;16.70;99.90;;;;;;5115047;28;20498;-71
2022/04/24 10:08:55;;;;;;;5.60;5.10;;;16.70;99.90;;;;;;5118038;28;20457;-71
2022/04/24 10:11:22;;;;;;;7.93;4.97;;;16.80;99.90;;;;;;5118761;28;20881;-72
2022/04/24 10:13:52;;;;;;;6.10;5.17;;;16.90;99.90;;;;;;5118896;28;20463;-71
2022/04/24 10:16:38;;;;;;;9.00;5.30;;;16.90;99.90;;;;;;5118811;28;20908;-71
2022/04/24 10:19:15;;;;;;;8.10;5.23;;;17.00;99.90;;;;;;5119063;28;20776;-71
2022/04/24 10:22:04;;;;;;;5.40;4.90;;;17.00;99.90;;;;;;5118732;28;20451;-71
2022/04/24 10:24:40;;;;;;;5.70;5.20;;;17.10;99.90;;;;;;5118799;28;20766;-71
2022/04/24 10:27:07;;;;;;;8.43;5.03;;;17.20;99.90;;;;;;5118164;28;20537;-71
2022/04/24 10:29:35;;;;;;;5.33;4.90;;;17.30;99.90;;;;;;5118233;28;20456;-71
2022/04/24 10:32:03;;;;;;;6.27;4.60;;;17.50;99.90;;;;;;5118187;28;20761;-72
2022/04/24 10:34:39;;;;;;;5.70;5.20;;;17.60;99.90;;;;;;5117720;28;20521;-72
2022/04/24 10:37:06;;;;;;;6.10;5.50;;;17.80;99.90;;;;;;5117855;28;20571;-72
2022/04/24 10:39:34;;;;;;;6.03;5.50;;;18.00;99.90;;;;;;5117792;28;20549;-72
2022/04/24 10:42:06;;;;;;;5.33;4.80;;;18.10;99.90;;;;;;5117608;28;20460;-70
2022/04/24 10:44:35;;;;;;;6.07;5.40;;;18.20;99.90;;;;;;5117457;28;20915;-71
2022/04/24 10:47:11;;;;;;;6.73;5.10;;;18.10;99.90;;;;;;5117536;28;20459;-72
2022/04/24 10:49:38;;;;;;;6.50;5.87;;;18.10;99.90;;;;;;5117823;28;20440;-71
2022/04/24 10:52:07;;;;;;;5.67;4.87;;;18.10;99.90;;;;;;5117371;28;20949;-72
2022/04/24 10:54:35;;;;;;;6.60;5.30;;;18.20;99.90;;;;;;5117602;28;20453;-72
2022/04/24 10:57:14;;;;;;;6.50;5.80;;;18.30;99.90;;;;;;5117295;28;20947;-72
2022/04/24 10:59:48;;;;;;;10.03;8.17;;;18.30;99.90;;;;;;5117510;28;20432;-72
2022/04/24 11:02:20;;;;;;;5.77;4.90;;;18.20;99.90;;;;;;5116959;28;20437;-71
2022/04/24 11:04:46;;;;;;;6.50;5.60;;;18.30;99.90;;;;;;5117125;28;20456;-72
2022/04/24 11:07:21;;;;;;;6.70;4.50;;;18.50;99.90;;;;;;5117681;28;20459;-72
2022/04/24 11:09:48;;;;;;;5.00;4.30;;;18.50;99.90;;;;;;5117314;28;20436;-72
2022/04/24 11:12:15;;;;;;;5.07;4.67;;;18.40;99.30;;;;;;5118383;28;20461;-71
2022/04/24 11:14:42;;;;;;;6.17;4.53;;;18.30;99.20;;;;;;5116751;28;20517;-72
2022/04/24 11:17:10;;;;;;;5.40;4.90;;;18.20;98.60;;;;;;5117322;28;20897;-70
2022/04/24 11:19:39;;;;;;;4.43;4.03;;;18.20;98.90;;;;;;5116681;28;20653;-72
2022/04/24 11:22:08;;;;;;;4.73;4.30;;;18.30;98.50;;;;;;5116755;28;20456;-73
2022/04/24 11:24:38;;;;;;;9.13;5.60;;;18.30;97.70;;;;;;5116912;28;20518;-72
2022/04/24 11:27:10;;;;;;;4.73;4.30;;;18.40;97.30;;;;;;5116810;28;20543;-71
2022/04/24 11:29:37;;;;;;;5.10;4.60;;;18.40;96.50;;;;;;5116639;28;20868;-72
2022/04/24 11:32:08;;;;;;;4.17;3.77;;;18.40;96.50;;;;;;5116412;28;20796;-72
2022/04/24 11:34:37;;;;;;;5.10;4.53;;;18.40;95.70;;;;;;5116977;28;20444;-72
2022/04/24 11:37:05;;;;;;;5.67;4.40;;;18.60;94.90;;;;;;5117185;28;20471;-71
2022/04/24 11:39:32;;;;;;;4.70;4.07;;;18.70;93.50;;;;;;5116880;28;20911;-70
2022/04/24 11:41:59;;;;;;;6.47;4.43;;;18.80;92.70;;;;;;5116089;28;20970;-71
2022/04/24 11:50:15;;;;;;;4.80;3.90;;;19.00;86.10;;;;;;5116461;28;20567;-72
2022/04/24 11:52:43;;;;;;;6.17;3.73;;;19.40;86.20;;;;;;5116937;28;20436;-71
2022/04/24 11:55:11;;;;;;;3.50;3.20;;;20.00;81.90;;;;;;5115826;28;20552;-72
2022/04/24 11:57:38;;;;;;;4.33;3.80;;;20.30;77.70;;;;;;5116326;28;20437;-71
2022/04/24 12:00:09;;;;;;;3.73;3.33;;;20.40;76.20;;;;;;5116095;28;20452;-71
2022/04/24 12:02:36;;;;;;;3.20;2.90;;;20.40;76.20;;;;;;5116220;28;20750;-72
2022/04/24 12:05:09;;;;;;;3.97;3.57;;;20.90;71.40;;;;;;5115893;28;20449;-73
2022/04/24 12:07:36;;;;;;;4.53;3.53;;;21.10;69.80;;;;;;5116492;28;20433;-72
2022/04/24 12:10:05;;;;;;;5.80;3.80;;;21.10;68.30;;;;;;5115967;28;20456;-71
2022/04/24 12:12:43;;;;;;;3.70;3.40;;;20.80;66.40;;;;;;5115760;28;20460;-72
2022/04/24 12:15:14;;;;;;;6.70;3.80;;;20.80;65.70;;;;;;5115976;28;20440;-71
2022/04/24 12:17:48;;;;;;;3.67;3.37;;;21.20;66.00;;;;;;5116060;28;20444;-72
2022/04/24 12:20:17;;;;;;;5.40;3.40;;;22.10;63.60;;;;;;5115757;28;20445;-72
2022/04/24 12:22:43;;;;;;;4.40;3.60;;;23.00;58.90;;;;;;5115458;28;20448;-72
2022/04/24 12:25:12;;;;;;;6.23;3.97;;;23.90;57.40;;;;;;5115940;28;20457;-73
2022/04/24 12:27:39;;;;;;;5.30;3.07;;;24.60;53.60;;;;;;5116034;28;20865;-73
2022/04/24 12:30:09;;;;;;;3.53;3.23;;;24.90;50.90;;;;;;5114891;28;20457;-72
2022/04/24 12:32:38;;;;;;;4.20;3.80;;;25.00;48.80;;;;;;5116005;28;20921;-72
2022/04/24 12:35:05;;;;;;;3.23;3.00;;;25.50;46.60;;;;;;5115795;28;20495;-72
2022/04/24 12:37:35;;;;;;;17.27;14.17;;;25.60;45.00;;;;;;5116329;28;20456;-72
2022/04/24 12:40:04;;;;;;;3.83;3.50;;;25.80;45.00;;;;;;5116163;28;20468;-73
2022/04/24 12:42:30;;;;;;;5.40;3.00;;;26.20;42.90;;;;;;5116855;28;20452;-72
2022/04/24 12:44:57;;;;;;;7.27;3.00;;;26.50;40.70;;;;;;5117603;28;20452;-71
2022/04/24 12:47:25;;;;;;;6.70;3.20;;;25.60;40.30;;;;;;5117390;28;20479;-72
2022/04/24 12:49:52;;;;;;;2.90;2.70;;;25.10;40.20;;;;;;5115916;28;20468;-72
2022/04/24 12:52:21;;;;;;;3.83;3.50;;;24.50;40.80;;;;;;5114901;28;20541;-72
2022/04/24 12:54:51;;;;;;;3.50;3.20;;;24.00;40.50;;;;;;5115624;28;20787;-71
2022/04/24 12:57:18;;;;;;;3.63;3.33;;;23.70;41.10;;;;;;5115381;28;20440;-72
2022/04/24 12:59:44;;;;;;;6.60;2.80;;;23.70;40.70;;;;;;5115118;28;20487;-72